sensor_id;sensor_type;location;lat;lon;timestamp;P1;durP1;ratioP1;P2;durP2;ratioP2
76119;SDS011;64852;48.092;-1.640;2022-12-01T00:00:59;21.90;;;20.60;;
76119;SDS011;64852;48.092;-1.640;2022-12-01T00:03:25;21.70;;;20.40;;
76119;SDS011;64852;48.092;-1.640;2022-12-01T00:05:57;22.42;;;21.13;;
76119;SDS011;64852;48.092;-1.640;2022-12-01T00:08:24;22.85;;;21.45;;
76119;SDS011;64852;48.092;-1.640;2022-12-01T00:10:50;22.05;;;20.75;;
76119;SDS011;64852;48.092;-1.640;2022-12-01T00:13:15;23.80;;;22.40;;
76119;SDS011;64852;48.092;-1.640;2022-12-01T00:15:41;22.70;;;21.30;;
76119;SDS011;64852;48.092;-1.640;2022-12-01T00:18:08;23.43;;;21.87;;
76119;SDS011;64852;48.092;-1.640;2022-12-01T00:20:34;23.55;;;22.10;;
76119;SDS011;64852;48.092;-1.640;2022-12-01T00:23:00;22.55;;;21.05;;
76119;SDS011;64852;48.092;-1.640;2022-12-01T00:25:26;22.58;;;21.20;;
76119;SDS011;64852;48.092;-1.640;2022-12-01T00:27:52;23.02;;;21.63;;
76119;SDS011;64852;48.092;-1.640;2022-12-01T00:32:45;24.40;;;22.77;;
76119;SDS011;64852;48.092;-1.640;2022-12-01T00:35:12;22.45;;;21.15;;
76119;SDS011;64852;48.092;-1.640;2022-12-01T00:37:38;23.67;;;22.25;;
76119;SDS011;64852;48.092;-1.640;2022-12-01T00:40:05;23.95;;;22.38;;
76119;SDS011;64852;48.092;-1.640;2022-12-01T00:42:31;24.60;;;23.00;;
76119;SDS011;64852;48.092;-1.640;2022-12-01T00:44:57;24.15;;;22.58;;
76119;SDS011;64852;48.092;-1.640;2022-12-01T00:47:22;22.83;;;21.40;;
76119;SDS011;64852;48.092;-1.640;2022-12-01T00:49:48;22.95;;;21.55;;
76119;SDS011;64852;48.092;-1.640;2022-12-01T00:52:16;22.40;;;21.05;;
76119;SDS011;64852;48.092;-1.640;2022-12-01T00:54:42;22.20;;;20.80;;
76119;SDS011;64852;48.092;-1.640;2022-12-01T00:57:08;24.77;;;23.27;;
76119;SDS011;64852;48.092;-1.640;2022-12-01T00:59:34;25.45;;;23.92;;
76119;SDS011;64852;48.092;-1.640;2022-12-01T01:02:03;22.85;;;21.40;;
76119;SDS011;64852;48.092;-1.640;2022-12-01T01:04:30;22.55;;;20.95;;
76119;SDS011;64852;48.092;-1.640;2022-12-01T01:06:57;24.35;;;22.30;;
76119;SDS011;64852;48.092;-1.640;2022-12-01T01:09:23;23.08;;;21.67;;
76119;SDS011;64852;48.092;-1.640;2022-12-01T01:11:50;24.58;;;21.83;;
76119;SDS011;64852;48.092;-1.640;2022-12-01T01:14:16;22.55;;;21.25;;
76119;SDS011;64852;48.092;-1.640;2022-12-01T01:16:41;22.33;;;21.03;;
76119;SDS011;64852;48.092;-1.640;2022-12-01T01:19:07;22.27;;;20.87;;
76119;SDS011;64852;48.092;-1.640;2022-12-01T01:21:32;23.07;;;21.50;;
76119;SDS011;64852;48.092;-1.640;2022-12-01T01:23:58;23.23;;;21.83;;
76119;SDS011;64852;48.092;-1.640;2022-12-01T01:26:25;21.43;;;19.93;;
76119;SDS011;64852;48.092;-1.640;2022-12-01T01:28:56;22.05;;;20.42;;
76119;SDS011;64852;48.092;-1.640;2022-12-01T01:31:23;21.35;;;20.15;;
76119;SDS011;64852;48.092;-1.640;2022-12-01T01:33:50;21.08;;;19.77;;
76119;SDS011;64852;48.092;-1.640;2022-12-01T01:36:17;23.63;;;22.17;;
76119;SDS011;64852;48.092;-1.640;2022-12-01T01:38:43;21.40;;;20.15;;
76119;SDS011;64852;48.092;-1.640;2022-12-01T01:41:09;22.23;;;20.92;;
76119;SDS011;64852;48.092;-1.640;2022-12-01T01:46:21;20.57;;;19.43;;
76119;SDS011;64852;48.092;-1.640;2022-12-01T01:48:49;21.27;;;19.98;;
76119;SDS011;64852;48.092;-1.640;2022-12-01T01:51:20;21.25;;;20.05;;
76119;SDS011;64852;48.092;-1.640;2022-12-01T01:53:49;20.63;;;19.42;;
76119;SDS011;64852;48.092;-1.640;2022-12-01T01:56:18;22.02;;;20.73;;
76119;SDS011;64852;48.092;-1.640;2022-12-01T01:58:45;22.38;;;21.08;;
76119;SDS011;64852;48.092;-1.640;2022-12-01T02:03:37;23.52;;;22.08;;
76119;SDS011;64852;48.092;-1.640;2022-12-01T02:06:05;22.77;;;21.38;;
76119;SDS011;64852;48.092;-1.640;2022-12-01T02:08:34;24.23;;;22.42;;
76119;SDS011;64852;48.092;-1.640;2022-12-01T02:11:07;22.58;;;21.17;;
76119;SDS011;64852;48.092;-1.640;2022-12-01T02:14:01;22.80;;;21.48;;
76119;SDS011;64852;48.092;-1.640;2022-12-01T02:34:05;24.65;;;23.13;;
76119;SDS011;64852;48.092;-1.640;2022-12-01T02:36:36;23.00;;;21.67;;
76119;SDS011;64852;48.092;-1.640;2022-12-01T02:39:20;24.42;;;22.92;;
76119;SDS011;64852;48.092;-1.640;2022-12-01T02:42:01;22.90;;;21.40;;
76119;SDS011;64852;48.092;-1.640;2022-12-01T02:44:34;24.33;;;22.88;;
76119;SDS011;64852;48.092;-1.640;2022-12-01T02:49:41;23.47;;;22.07;;
76119;SDS011;64852;48.092;-1.640;2022-12-01T02:52:10;24.85;;;23.23;;
76119;SDS011;64852;48.092;-1.640;2022-12-01T02:54:38;22.33;;;21.05;;
76119;SDS011;64852;48.092;-1.640;2022-12-01T02:57:10;23.55;;;22.13;;
76119;SDS011;64852;48.092;-1.640;2022-12-01T02:59:38;24.67;;;23.17;;
76119;SDS011;64852;48.092;-1.640;2022-12-01T03:02:12;23.67;;;22.17;;
76119;SDS011;64852;48.092;-1.640;2022-12-01T03:07:38;23.25;;;21.65;;
76119;SDS011;64852;48.092;-1.640;2022-12-01T03:10:36;24.10;;;22.48;;
76119;SDS011;64852;48.092;-1.640;2022-12-01T03:16:27;21.58;;;20.27;;
76119;SDS011;64852;48.092;-1.640;2022-12-01T03:19:09;23.45;;;22.05;;
76119;SDS011;64852;48.092;-1.640;2022-12-01T03:21:45;24.00;;;22.23;;
76119;SDS011;64852;48.092;-1.640;2022-12-01T03:24:25;24.67;;;22.42;;
76119;SDS011;64852;48.092;-1.640;2022-12-01T03:26:54;22.83;;;21.52;;
76119;SDS011;64852;48.092;-1.640;2022-12-01T03:29:24;23.08;;;21.67;;
76119;SDS011;64852;48.092;-1.640;2022-12-01T03:32:02;23.08;;;21.58;;
76119;SDS011;64852;48.092;-1.640;2022-12-01T03:34:54;25.02;;;23.33;;
76119;SDS011;64852;48.092;-1.640;2022-12-01T03:37:32;23.58;;;22.13;;
76119;SDS011;64852;48.092;-1.640;2022-12-01T03:40:04;21.83;;;20.35;;
76119;SDS011;64852;48.092;-1.640;2022-12-01T03:42:34;22.10;;;20.80;;
76119;SDS011;64852;48.092;-1.640;2022-12-01T03:45:06;23.67;;;22.13;;
76119;SDS011;64852;48.092;-1.640;2022-12-01T03:47:38;22.23;;;20.92;;
76119;SDS011;64852;48.092;-1.640;2022-12-01T03:50:04;21.85;;;20.42;;
76119;SDS011;64852;48.092;-1.640;2022-12-01T03:52:46;22.58;;;21.27;;
76119;SDS011;64852;48.092;-1.640;2022-12-01T03:57:55;20.73;;;19.48;;
76119;SDS011;64852;48.092;-1.640;2022-12-01T04:00:47;22.38;;;20.98;;
76119;SDS011;64852;48.092;-1.640;2022-12-01T04:03:18;22.70;;;21.27;;
76119;SDS011;64852;48.092;-1.640;2022-12-01T04:05:46;21.27;;;19.98;;
76119;SDS011;64852;48.092;-1.640;2022-12-01T04:08:12;23.70;;;22.23;;
76119;SDS011;64852;48.092;-1.640;2022-12-01T04:10:38;23.63;;;22.13;;
76119;SDS011;64852;48.092;-1.640;2022-12-01T04:13:03;23.40;;;22.00;;
76119;SDS011;64852;48.092;-1.640;2022-12-01T04:15:29;22.30;;;20.80;;
76119;SDS011;64852;48.092;-1.640;2022-12-01T04:17:55;23.45;;;21.98;;
76119;SDS011;64852;48.092;-1.640;2022-12-01T04:20:21;27.08;;;23.25;;
76119;SDS011;64852;48.092;-1.640;2022-12-01T04:22:46;22.65;;;21.27;;
76119;SDS011;64852;48.092;-1.640;2022-12-01T04:25:12;25.70;;;23.80;;
76119;SDS011;64852;48.092;-1.640;2022-12-01T04:27:38;23.70;;;22.30;;
76119;SDS011;64852;48.092;-1.640;2022-12-01T04:30:04;24.65;;;23.15;;
76119;SDS011;64852;48.092;-1.640;2022-12-01T04:32:33;23.65;;;21.98;;
76119;SDS011;64852;48.092;-1.640;2022-12-01T04:35:02;22.75;;;21.25;;
76119;SDS011;64852;48.092;-1.640;2022-12-01T04:37:28;22.25;;;20.85;;
76119;SDS011;64852;48.092;-1.640;2022-12-01T04:39:53;23.70;;;21.80;;
76119;SDS011;64852;48.092;-1.640;2022-12-01T04:42:19;23.25;;;21.85;;
76119;SDS011;64852;48.092;-1.640;2022-12-01T04:44:44;23.93;;;22.43;;
76119;SDS011;64852;48.092;-1.640;2022-12-01T04:47:10;22.92;;;21.52;;
76119;SDS011;64852;48.092;-1.640;2022-12-01T04:49:35;24.77;;;23.17;;
76119;SDS011;64852;48.092;-1.640;2022-12-01T04:52:01;24.20;;;22.70;;
76119;SDS011;64852;48.092;-1.640;2022-12-01T04:54:27;23.35;;;21.95;;
76119;SDS011;64852;48.092;-1.640;2022-12-01T04:56:52;22.40;;;21.08;;
76119;SDS011;64852;48.092;-1.640;2022-12-01T04:59:18;23.08;;;21.67;;
76119;SDS011;64852;48.092;-1.640;2022-12-01T05:01:44;23.67;;;22.15;;
76119;SDS011;64852;48.092;-1.640;2022-12-01T05:04:12;24.55;;;22.98;;
76119;SDS011;64852;48.092;-1.640;2022-12-01T05:06:38;23.60;;;22.10;;
76119;SDS011;64852;48.092;-1.640;2022-12-01T05:09:04;23.05;;;21.65;;
76119;SDS011;64852;48.092;-1.640;2022-12-01T05:11:30;24.08;;;22.35;;
76119;SDS011;64852;48.092;-1.640;2022-12-01T05:16:24;24.23;;;22.48;;
76119;SDS011;64852;48.092;-1.640;2022-12-01T05:18:52;23.33;;;21.92;;
76119;SDS011;64852;48.092;-1.640;2022-12-01T05:21:49;24.05;;;22.55;;
76119;SDS011;64852;48.092;-1.640;2022-12-01T05:24:16;24.52;;;22.92;;
76119;SDS011;64852;48.092;-1.640;2022-12-01T05:26:43;24.25;;;22.60;;
76119;SDS011;64852;48.092;-1.640;2022-12-01T05:29:09;24.17;;;22.67;;
76119;SDS011;64852;48.092;-1.640;2022-12-01T05:31:36;23.98;;;22.45;;
76119;SDS011;64852;48.092;-1.640;2022-12-01T05:34:03;25.05;;;23.45;;
76119;SDS011;64852;48.092;-1.640;2022-12-01T05:36:29;24.73;;;23.13;;
76119;SDS011;64852;48.092;-1.640;2022-12-01T05:38:55;25.75;;;24.05;;
76119;SDS011;64852;48.092;-1.640;2022-12-01T05:41:21;26.35;;;24.65;;
76119;SDS011;64852;48.092;-1.640;2022-12-01T05:43:46;26.38;;;24.65;;
76119;SDS011;64852;48.092;-1.640;2022-12-01T05:46:12;24.58;;;22.98;;
76119;SDS011;64852;48.092;-1.640;2022-12-01T05:48:38;24.13;;;22.63;;
76119;SDS011;64852;48.092;-1.640;2022-12-01T05:51:09;24.55;;;23.05;;
76119;SDS011;64852;48.092;-1.640;2022-12-01T05:53:36;27.20;;;25.40;;
76119;SDS011;64852;48.092;-1.640;2022-12-01T05:56:02;24.00;;;22.50;;
76119;SDS011;64852;48.092;-1.640;2022-12-01T05:58:28;26.70;;;24.58;;
76119;SDS011;64852;48.092;-1.640;2022-12-01T06:00:54;23.40;;;21.98;;
76119;SDS011;64852;48.092;-1.640;2022-12-01T06:03:20;24.02;;;22.58;;
76119;SDS011;64852;48.092;-1.640;2022-12-01T06:05:45;24.60;;;23.10;;
76119;SDS011;64852;48.092;-1.640;2022-12-01T06:08:11;25.17;;;23.37;;
76119;SDS011;64852;48.092;-1.640;2022-12-01T06:10:36;24.63;;;23.13;;
76119;SDS011;64852;48.092;-1.640;2022-12-01T06:13:02;24.93;;;23.43;;
76119;SDS011;64852;48.092;-1.640;2022-12-01T06:15:28;27.60;;;25.58;;
76119;SDS011;64852;48.092;-1.640;2022-12-01T06:17:53;25.13;;;23.63;;
76119;SDS011;64852;48.092;-1.640;2022-12-01T06:20:22;25.83;;;24.00;;
76119;SDS011;64852;48.092;-1.640;2022-12-01T06:22:48;24.80;;;23.30;;
76119;SDS011;64852;48.092;-1.640;2022-12-01T06:25:13;24.73;;;23.23;;
76119;SDS011;64852;48.092;-1.640;2022-12-01T06:27:39;24.75;;;23.23;;
76119;SDS011;64852;48.092;-1.640;2022-12-01T06:30:05;24.73;;;23.10;;
76119;SDS011;64852;48.092;-1.640;2022-12-01T06:32:31;23.20;;;21.60;;
76119;SDS011;64852;48.092;-1.640;2022-12-01T06:34:57;27.13;;;25.08;;
76119;SDS011;64852;48.092;-1.640;2022-12-01T06:37:22;26.40;;;24.60;;
76119;SDS011;64852;48.092;-1.640;2022-12-01T06:39:48;25.77;;;23.98;;
76119;SDS011;64852;48.092;-1.640;2022-12-01T06:42:14;26.60;;;24.88;;
76119;SDS011;64852;48.092;-1.640;2022-12-01T06:44:39;26.80;;;25.02;;
76119;SDS011;64852;48.092;-1.640;2022-12-01T06:47:05;26.17;;;24.58;;
76119;SDS011;64852;48.092;-1.640;2022-12-01T06:49:32;27.73;;;25.83;;
76119;SDS011;64852;48.092;-1.640;2022-12-01T06:51:58;25.73;;;24.02;;
76119;SDS011;64852;48.092;-1.640;2022-12-01T06:54:23;26.75;;;25.02;;
76119;SDS011;64852;48.092;-1.640;2022-12-01T06:56:49;27.35;;;25.65;;
76119;SDS011;64852;48.092;-1.640;2022-12-01T06:59:15;27.33;;;25.63;;
76119;SDS011;64852;48.092;-1.640;2022-12-01T07:01:40;27.58;;;25.77;;
76119;SDS011;64852;48.092;-1.640;2022-12-01T07:04:06;28.52;;;26.20;;
76119;SDS011;64852;48.092;-1.640;2022-12-01T07:06:31;27.20;;;25.20;;
76119;SDS011;64852;48.092;-1.640;2022-12-01T07:08:57;27.35;;;25.65;;
76119;SDS011;64852;48.092;-1.640;2022-12-01T07:11:23;24.80;;;23.30;;
76119;SDS011;64852;48.092;-1.640;2022-12-01T07:13:48;25.10;;;23.60;;
76119;SDS011;64852;48.092;-1.640;2022-12-01T07:16:19;26.30;;;24.70;;
76119;SDS011;64852;48.092;-1.640;2022-12-01T07:21:12;23.92;;;22.52;;
76119;SDS011;64852;48.092;-1.640;2022-12-01T07:23:38;26.50;;;24.60;;
76119;SDS011;64852;48.092;-1.640;2022-12-01T07:26:11;25.23;;;23.73;;
76119;SDS011;64852;48.092;-1.640;2022-12-01T07:28:39;24.33;;;22.92;;
76119;SDS011;64852;48.092;-1.640;2022-12-01T07:31:05;27.73;;;26.05;;
76119;SDS011;64852;48.092;-1.640;2022-12-01T07:33:50;26.63;;;23.02;;
76119;SDS011;64852;48.092;-1.640;2022-12-01T07:36:16;24.65;;;22.92;;
76119;SDS011;64852;48.092;-1.640;2022-12-01T07:38:41;24.70;;;23.17;;
76119;SDS011;64852;48.092;-1.640;2022-12-01T07:41:08;23.05;;;21.65;;
76119;SDS011;64852;48.092;-1.640;2022-12-01T07:43:36;24.65;;;23.25;;
76119;SDS011;64852;48.092;-1.640;2022-12-01T07:46:12;22.67;;;21.38;;
76119;SDS011;64852;48.092;-1.640;2022-12-01T07:48:39;23.27;;;21.88;;
76119;SDS011;64852;48.092;-1.640;2022-12-01T07:53:32;26.75;;;25.05;;
76119;SDS011;64852;48.092;-1.640;2022-12-01T07:55:58;26.77;;;25.25;;
76119;SDS011;64852;48.092;-1.640;2022-12-01T07:58:24;24.25;;;22.67;;
76119;SDS011;64852;48.092;-1.640;2022-12-01T08:00:51;26.52;;;24.92;;
76119;SDS011;64852;48.092;-1.640;2022-12-01T08:03:17;25.60;;;23.63;;
76119;SDS011;64852;48.092;-1.640;2022-12-01T08:05:42;23.85;;;22.33;;
76119;SDS011;64852;48.092;-1.640;2022-12-01T08:08:08;25.95;;;24.35;;
76119;SDS011;64852;48.092;-1.640;2022-12-01T08:10:34;24.50;;;23.05;;
76119;SDS011;64852;48.092;-1.640;2022-12-01T08:13:00;24.58;;;23.08;;
76119;SDS011;64852;48.092;-1.640;2022-12-01T08:15:25;24.17;;;22.58;;
76119;SDS011;64852;48.092;-1.640;2022-12-01T08:17:51;23.77;;;22.27;;
76119;SDS011;64852;48.092;-1.640;2022-12-01T08:20:17;26.10;;;24.17;;
76119;SDS011;64852;48.092;-1.640;2022-12-01T08:22:42;23.17;;;21.77;;
76119;SDS011;64852;48.092;-1.640;2022-12-01T08:25:08;23.60;;;22.20;;
76119;SDS011;64852;48.092;-1.640;2022-12-01T08:27:34;23.15;;;21.75;;
76119;SDS011;64852;48.092;-1.640;2022-12-01T08:30:00;23.63;;;22.23;;
76119;SDS011;64852;48.092;-1.640;2022-12-01T08:32:26;23.70;;;21.98;;
76119;SDS011;64852;48.092;-1.640;2022-12-01T08:34:53;23.15;;;21.75;;
76119;SDS011;64852;48.092;-1.640;2022-12-01T08:37:19;23.40;;;21.98;;
76119;SDS011;64852;48.092;-1.640;2022-12-01T08:39:44;24.27;;;22.75;;
76119;SDS011;64852;48.092;-1.640;2022-12-01T08:42:10;24.87;;;23.47;;
76119;SDS011;64852;48.092;-1.640;2022-12-01T08:44:36;24.58;;;23.10;;
76119;SDS011;64852;48.092;-1.640;2022-12-01T08:47:02;24.55;;;23.05;;
76119;SDS011;64852;48.092;-1.640;2022-12-01T08:49:27;23.17;;;21.77;;
76119;SDS011;64852;48.092;-1.640;2022-12-01T08:51:53;24.55;;;23.10;;
76119;SDS011;64852;48.092;-1.640;2022-12-01T08:54:20;26.88;;;24.67;;
76119;SDS011;64852;48.092;-1.640;2022-12-01T08:56:46;26.52;;;24.70;;
76119;SDS011;64852;48.092;-1.640;2022-12-01T08:59:12;25.25;;;23.77;;
76119;SDS011;64852;48.092;-1.640;2022-12-01T09:01:37;25.90;;;24.40;;
76119;SDS011;64852;48.092;-1.640;2022-12-01T09:04:15;23.00;;;21.67;;
76119;SDS011;64852;48.092;-1.640;2022-12-01T09:06:42;23.27;;;21.65;;
76119;SDS011;64852;48.092;-1.640;2022-12-01T09:09:10;24.42;;;22.55;;
76119;SDS011;64852;48.092;-1.640;2022-12-01T09:11:38;24.08;;;22.67;;
76119;SDS011;64852;48.092;-1.640;2022-12-01T09:14:04;23.77;;;22.30;;
76119;SDS011;64852;48.092;-1.640;2022-12-01T09:16:30;25.15;;;23.25;;
76119;SDS011;64852;48.092;-1.640;2022-12-01T09:18:56;23.90;;;22.40;;
76119;SDS011;64852;48.092;-1.640;2022-12-01T09:21:25;26.52;;;24.50;;
76119;SDS011;64852;48.092;-1.640;2022-12-01T09:23:54;25.63;;;24.00;;
76119;SDS011;64852;48.092;-1.640;2022-12-01T09:26:19;25.20;;;23.60;;
76119;SDS011;64852;48.092;-1.640;2022-12-01T09:28:46;27.80;;;26.20;;
76119;SDS011;64852;48.092;-1.640;2022-12-01T09:31:14;24.38;;;22.98;;
76119;SDS011;64852;48.092;-1.640;2022-12-01T09:33:41;22.75;;;21.45;;
76119;SDS011;64852;48.092;-1.640;2022-12-01T09:36:07;23.63;;;22.25;;
76119;SDS011;64852;48.092;-1.640;2022-12-01T09:38:34;23.75;;;22.25;;
76119;SDS011;64852;48.092;-1.640;2022-12-01T09:41:21;21.58;;;20.38;;
76119;SDS011;64852;48.092;-1.640;2022-12-01T09:44:06;24.67;;;23.10;;
76119;SDS011;64852;48.092;-1.640;2022-12-01T09:47:25;24.30;;;22.88;;
76119;SDS011;64852;48.092;-1.640;2022-12-01T09:49:34;25.75;;;24.10;;
76119;SDS011;64852;48.092;-1.640;2022-12-01T09:52:12;27.75;;;25.73;;
76119;SDS011;64852;48.092;-1.640;2022-12-01T09:54:39;25.52;;;24.00;;
76119;SDS011;64852;48.092;-1.640;2022-12-01T09:57:06;27.45;;;25.65;;
76119;SDS011;64852;48.092;-1.640;2022-12-01T09:59:58;26.13;;;24.52;;
76119;SDS011;64852;48.092;-1.640;2022-12-01T10:02:30;26.00;;;24.30;;
76119;SDS011;64852;48.092;-1.640;2022-12-01T10:05:00;24.17;;;22.73;;
76119;SDS011;64852;48.092;-1.640;2022-12-01T10:07:30;25.67;;;24.05;;
76119;SDS011;64852;48.092;-1.640;2022-12-01T10:10:04;25.67;;;24.08;;
76119;SDS011;64852;48.092;-1.640;2022-12-01T10:12:36;25.77;;;24.08;;
76119;SDS011;64852;48.092;-1.640;2022-12-01T10:15:26;24.50;;;22.60;;
76119;SDS011;64852;48.092;-1.640;2022-12-01T10:20:51;24.05;;;22.58;;
76119;SDS011;64852;48.092;-1.640;2022-12-01T10:27:18;23.63;;;21.70;;
76119;SDS011;64852;48.092;-1.640;2022-12-01T10:29:33;27.10;;;24.85;;
76119;SDS011;64852;48.092;-1.640;2022-12-01T10:32:16;24.23;;;22.73;;
76119;SDS011;64852;48.092;-1.640;2022-12-01T10:34:43;23.65;;;22.00;;
76119;SDS011;64852;48.092;-1.640;2022-12-01T10:37:21;23.50;;;21.77;;
76119;SDS011;64852;48.092;-1.640;2022-12-01T10:39:49;21.63;;;20.33;;
76119;SDS011;64852;48.092;-1.640;2022-12-01T10:45:04;21.00;;;19.67;;
76119;SDS011;64852;48.092;-1.640;2022-12-01T10:47:34;23.10;;;21.70;;
76119;SDS011;64852;48.092;-1.640;2022-12-01T10:50:01;22.70;;;21.35;;
76119;SDS011;64852;48.092;-1.640;2022-12-01T10:52:38;23.27;;;21.85;;
76119;SDS011;64852;48.092;-1.640;2022-12-01T10:55:25;24.50;;;23.00;;
76119;SDS011;64852;48.092;-1.640;2022-12-01T10:57:53;24.30;;;22.90;;
76119;SDS011;64852;48.092;-1.640;2022-12-01T11:00:22;23.75;;;22.35;;
76119;SDS011;64852;48.092;-1.640;2022-12-01T11:02:49;26.00;;;24.35;;
76119;SDS011;64852;48.092;-1.640;2022-12-01T11:05:22;24.88;;;23.38;;
76119;SDS011;64852;48.092;-1.640;2022-12-01T11:07:50;24.05;;;22.50;;
76119;SDS011;64852;48.092;-1.640;2022-12-01T11:15:50;23.92;;;22.48;;
76119;SDS011;64852;48.092;-1.640;2022-12-01T11:18:27;25.30;;;23.70;;
76119;SDS011;64852;48.092;-1.640;2022-12-01T11:23:59;26.58;;;25.00;;
76119;SDS011;64852;48.092;-1.640;2022-12-01T11:26:25;28.40;;;26.55;;
76119;SDS011;64852;48.092;-1.640;2022-12-01T11:28:55;25.50;;;24.00;;
76119;SDS011;64852;48.092;-1.640;2022-12-01T11:34:29;25.00;;;23.50;;
76119;SDS011;64852;48.092;-1.640;2022-12-01T11:37:02;24.73;;;23.23;;
76119;SDS011;64852;48.092;-1.640;2022-12-01T11:39:32;24.45;;;23.05;;
76119;SDS011;64852;48.092;-1.640;2022-12-01T11:42:02;24.52;;;23.02;;
76119;SDS011;64852;48.092;-1.640;2022-12-01T11:44:37;26.45;;;24.92;;
76119;SDS011;64852;48.092;-1.640;2022-12-01T11:47:15;25.90;;;24.10;;
76119;SDS011;64852;48.092;-1.640;2022-12-01T11:49:43;27.30;;;25.52;;
76119;SDS011;64852;48.092;-1.640;2022-12-01T11:52:16;26.10;;;24.58;;
76119;SDS011;64852;48.092;-1.640;2022-12-01T11:55:36;26.63;;;24.52;;
76119;SDS011;64852;48.092;-1.640;2022-12-01T11:57:46;28.20;;;26.27;;
76119;SDS011;64852;48.092;-1.640;2022-12-01T12:00:14;30.10;;;28.20;;
76119;SDS011;64852;48.092;-1.640;2022-12-01T12:11:36;26.13;;;24.52;;
76119;SDS011;64852;48.092;-1.640;2022-12-01T12:24:38;31.02;;;28.40;;
76119;SDS011;64852;48.092;-1.640;2022-12-01T12:32:20;32.58;;;30.13;;
76119;SDS011;64852;48.092;-1.640;2022-12-01T12:35:24;32.22;;;30.13;;
76119;SDS011;64852;48.092;-1.640;2022-12-01T12:40:53;28.70;;;26.90;;
76119;SDS011;64852;48.092;-1.640;2022-12-01T12:46:04;28.55;;;26.55;;
76119;SDS011;64852;48.092;-1.640;2022-12-01T12:53:43;29.75;;;27.80;;
76119;SDS011;64852;48.092;-1.640;2022-12-01T12:56:12;30.73;;;28.75;;
76119;SDS011;64852;48.092;-1.640;2022-12-01T13:01:33;27.02;;;25.33;;
76119;SDS011;64852;48.092;-1.640;2022-12-01T13:04:08;24.52;;;23.13;;
76119;SDS011;64852;48.092;-1.640;2022-12-01T13:07:01;27.05;;;24.75;;
76119;SDS011;64852;48.092;-1.640;2022-12-01T13:12:08;26.38;;;24.42;;
76119;SDS011;64852;48.092;-1.640;2022-12-01T13:14:41;25.05;;;23.50;;
76119;SDS011;64852;48.092;-1.640;2022-12-01T13:17:18;27.08;;;25.27;;
76119;SDS011;64852;48.092;-1.640;2022-12-01T13:19:49;25.90;;;24.27;;
76119;SDS011;64852;48.092;-1.640;2022-12-01T13:22:15;26.40;;;24.57;;
76119;SDS011;64852;48.092;-1.640;2022-12-01T13:24:43;25.83;;;24.15;;
76119;SDS011;64852;48.092;-1.640;2022-12-01T13:29:35;25.30;;;23.63;;
76119;SDS011;64852;48.092;-1.640;2022-12-01T13:32:02;20.58;;;19.33;;
76119;SDS011;64852;48.092;-1.640;2022-12-01T13:34:36;20.20;;;18.70;;
76119;SDS011;64852;48.092;-1.640;2022-12-01T13:37:06;21.50;;;20.20;;
76119;SDS011;64852;48.092;-1.640;2022-12-01T13:39:35;24.63;;;22.95;;
76119;SDS011;64852;48.092;-1.640;2022-12-01T13:44:40;25.30;;;23.25;;
76119;SDS011;64852;48.092;-1.640;2022-12-01T13:49:35;23.83;;;22.33;;
76119;SDS011;64852;48.092;-1.640;2022-12-01T13:55:01;22.92;;;20.63;;
76119;SDS011;64852;48.092;-1.640;2022-12-01T14:00:23;24.58;;;23.05;;
76119;SDS011;64852;48.092;-1.640;2022-12-01T14:10:39;20.20;;;18.88;;
76119;SDS011;64852;48.092;-1.640;2022-12-01T14:13:05;20.02;;;18.73;;
76119;SDS011;64852;48.092;-1.640;2022-12-01T14:15:38;21.48;;;20.02;;
76119;SDS011;64852;48.092;-1.640;2022-12-01T14:20:45;19.65;;;18.45;;
76119;SDS011;64852;48.092;-1.640;2022-12-01T14:23:18;17.80;;;16.60;;
76119;SDS011;64852;48.092;-1.640;2022-12-01T14:31:22;18.17;;;16.90;;
76119;SDS011;64852;48.092;-1.640;2022-12-01T14:33:52;18.35;;;17.25;;
76119;SDS011;64852;48.092;-1.640;2022-12-01T14:38:48;20.00;;;18.63;;
76119;SDS011;64852;48.092;-1.640;2022-12-01T14:44:27;18.45;;;17.35;;
76119;SDS011;64852;48.092;-1.640;2022-12-01T14:54:54;17.83;;;16.67;;
76119;SDS011;64852;48.092;-1.640;2022-12-01T14:57:33;18.63;;;17.23;;
76119;SDS011;64852;48.092;-1.640;2022-12-01T15:02:46;16.20;;;15.20;;
76119;SDS011;64852;48.092;-1.640;2022-12-01T15:05:24;18.60;;;17.60;;
76119;SDS011;64852;48.092;-1.640;2022-12-01T15:07:53;16.13;;;15.15;;
76119;SDS011;64852;48.092;-1.640;2022-12-01T15:10:22;17.50;;;16.42;;
76119;SDS011;64852;48.092;-1.640;2022-12-01T15:12:50;16.00;;;15.10;;
76119;SDS011;64852;48.092;-1.640;2022-12-01T15:15:17;17.70;;;16.70;;
76119;SDS011;64852;48.092;-1.640;2022-12-01T15:17:43;16.40;;;15.50;;
76119;SDS011;64852;48.092;-1.640;2022-12-01T15:22:50;16.10;;;15.13;;
76119;SDS011;64852;48.092;-1.640;2022-12-01T15:25:17;16.27;;;15.38;;
76119;SDS011;64852;48.092;-1.640;2022-12-01T15:27:42;15.38;;;14.48;;
76119;SDS011;64852;48.092;-1.640;2022-12-01T15:30:11;16.07;;;15.00;;
76119;SDS011;64852;48.092;-1.640;2022-12-01T15:32:38;18.30;;;17.13;;
76119;SDS011;64852;48.092;-1.640;2022-12-01T15:35:17;16.73;;;15.73;;
76119;SDS011;64852;48.092;-1.640;2022-12-01T15:37:45;17.15;;;16.08;;
76119;SDS011;64852;48.092;-1.640;2022-12-01T15:40:13;18.00;;;17.00;;
76119;SDS011;64852;48.092;-1.640;2022-12-01T15:42:41;20.70;;;18.70;;
76119;SDS011;64852;48.092;-1.640;2022-12-01T15:47:43;17.35;;;16.10;;
76119;SDS011;64852;48.092;-1.640;2022-12-01T15:53:06;17.65;;;16.65;;
76119;SDS011;64852;48.092;-1.640;2022-12-01T15:55:40;18.60;;;16.92;;
76119;SDS011;64852;48.092;-1.640;2022-12-01T15:58:17;18.42;;;17.33;;
76119;SDS011;64852;48.092;-1.640;2022-12-01T16:01:07;17.05;;;16.05;;
76119;SDS011;64852;48.092;-1.640;2022-12-01T16:03:54;16.38;;;15.48;;
76119;SDS011;64852;48.092;-1.640;2022-12-01T16:06:30;16.42;;;15.30;;
76119;SDS011;64852;48.092;-1.640;2022-12-01T16:09:18;17.67;;;16.58;;
76119;SDS011;64852;48.092;-1.640;2022-12-01T16:14:34;16.42;;;15.43;;
76119;SDS011;64852;48.092;-1.640;2022-12-01T16:17:00;17.05;;;15.68;;
76119;SDS011;64852;48.092;-1.640;2022-12-01T16:19:28;17.35;;;16.25;;
76119;SDS011;64852;48.092;-1.640;2022-12-01T16:21:58;16.00;;;15.13;;
76119;SDS011;64852;48.092;-1.640;2022-12-01T16:27:22;18.02;;;15.70;;
76119;SDS011;64852;48.092;-1.640;2022-12-01T16:29:53;17.42;;;16.42;;
76119;SDS011;64852;48.092;-1.640;2022-12-01T16:35:04;16.98;;;16.08;;
76119;SDS011;64852;48.092;-1.640;2022-12-01T16:37:31;15.15;;;14.35;;
76119;SDS011;64852;48.092;-1.640;2022-12-01T16:39:57;17.50;;;16.30;;
76119;SDS011;64852;48.092;-1.640;2022-12-01T16:42:22;18.05;;;16.83;;
76119;SDS011;64852;48.092;-1.640;2022-12-01T16:44:49;19.40;;;18.20;;
76119;SDS011;64852;48.092;-1.640;2022-12-01T16:49:43;15.55;;;14.57;;
76119;SDS011;64852;48.092;-1.640;2022-12-01T16:52:09;14.93;;;14.07;;
76119;SDS011;64852;48.092;-1.640;2022-12-01T16:54:35;16.13;;;15.23;;
76119;SDS011;64852;48.092;-1.640;2022-12-01T16:57:00;15.47;;;14.40;;
76119;SDS011;64852;48.092;-1.640;2022-12-01T16:59:26;14.45;;;13.55;;
76119;SDS011;64852;48.092;-1.640;2022-12-01T17:01:52;15.27;;;14.27;;
76119;SDS011;64852;48.092;-1.640;2022-12-01T17:04:17;16.30;;;15.17;;
76119;SDS011;64852;48.092;-1.640;2022-12-01T17:06:43;14.73;;;13.93;;
76119;SDS011;64852;48.092;-1.640;2022-12-01T17:09:08;17.23;;;16.20;;
76119;SDS011;64852;48.092;-1.640;2022-12-01T17:11:34;15.50;;;14.57;;